createdAt,value
2017-10-13T18:42:47.887Z,81.2
2017-10-13T18:43:58.431Z,81.2
2017-10-13T18:45:08.975Z,81.2
2017-10-13T18:46:19.726Z,81.38
2017-10-13T18:47:30.632Z,81.2
2017-10-13T18:48:41.150Z,80.9
2017-10-13T18:49:51.794Z,81.38
2017-10-13T18:51:02.383Z,81.2
2017-10-13T18:52:12.722Z,81.1
2017-10-13T18:53:22.891Z,81.67
2017-10-13T18:54:33.102Z,81.54
2017-10-13T18:55:43.329Z,81.44
2017-10-13T18:56:53.993Z,81.54
2017-10-13T18:58:04.551Z,81.73
2017-10-13T18:59:15.105Z,81.63
2017-10-13T19:00:25.992Z,81.63
2017-10-13T19:01:36.573Z,81.63
2017-10-13T19:02:47.061Z,81.63
2017-10-13T19:03:57.270Z,81.63
2017-10-13T19:05:07.505Z,81.73
2017-10-13T19:06:17.378Z,81.92
2017-10-13T19:07:27.943Z,81.73
2017-10-13T19:08:38.449Z,81.82
2017-10-13T19:09:48.706Z,81.54
2017-10-13T19:10:59.249Z,82.3
2017-10-13T19:12:09.878Z,82.2
2017-10-13T19:13:20.401Z,82.11
2017-10-13T19:14:30.996Z,82.01
2017-10-13T19:15:41.669Z,81.82
2017-10-13T19:16:52.088Z,82.11
2017-10-13T19:18:02.605Z,82.4
2017-10-13T19:19:13.236Z,82.2
2017-10-13T19:20:23.784Z,82.4
2017-10-13T19:21:34.351Z,82.3
2017-10-13T19:22:44.622Z,82.78
2017-10-13T19:23:55.321Z,82.59
2017-10-13T19:25:05.904Z,82.97
2017-10-13T19:26:16.440Z,82.68
2017-10-13T19:27:27.107Z,82.87
2017-10-13T19:28:37.665Z,83.06
2017-10-13T19:29:48.233Z,83.06
2017-10-13T19:30:58.601Z,82.49
2017-10-13T19:32:08.795Z,82.59
2017-10-13T19:33:20.325Z,83.06
2017-10-13T19:34:32.327Z,82.68
2017-10-13T19:35:42.905Z,82.68
2017-10-13T19:36:53.625Z,82.87
2017-10-13T19:38:04.199Z,82.59
2017-10-13T19:39:15.041Z,83.26
2017-10-13T19:40:25.580Z,82.59
2017-10-13T19:41:36.168Z,82.68
2017-10-13T19:42:46.788Z,83.16
2017-10-13T19:43:57.543Z,83.45
2017-10-13T19:45:07.751Z,83.06
2017-10-13T19:46:18.286Z,83.16
2017-10-13T19:47:28.880Z,83.26
2017-10-13T19:48:40.538Z,83.06
2017-10-13T19:49:57.040Z,83.26
2017-10-13T19:51:10.415Z,83.03
2017-10-13T19:52:20.773Z,82.93
2017-10-13T19:53:31.434Z,82.93
2017-10-13T19:54:42.037Z,83.69
2017-10-13T19:55:52.599Z,83.69
2017-10-13T19:57:02.948Z,83.69
2017-10-13T19:58:13.584Z,83.69
2017-10-13T19:59:23.833Z,83.6
2017-10-13T20:00:34.397Z,83.6
2017-10-13T20:01:44.661Z,83.69
2017-10-13T20:02:55.272Z,83.98
2017-10-13T20:04:05.923Z,83.79
2017-10-13T20:05:16.179Z,83.79
2017-10-13T20:06:27.673Z,84.46
2017-10-13T20:07:38.178Z,83.98
2017-10-13T20:08:48.717Z,83.98
2017-10-13T20:09:59.333Z,84.17
2017-10-13T20:11:09.875Z,84.17
2017-10-13T20:12:20.415Z,84.17
2017-10-13T20:13:30.965Z,84.17
2017-10-13T20:14:41.210Z,84.17
2017-10-13T20:15:51.488Z,84.23
2017-10-13T20:17:01.995Z,83.94
2017-10-13T20:18:12.254Z,83.94
2017-10-13T20:19:22.800Z,84.52
2017-10-13T20:20:33.581Z,84.03
2017-10-13T20:21:45.155Z,84.42
2017-10-13T20:22:55.765Z,84.42
2017-10-13T20:24:06.318Z,84.13
2017-10-13T20:25:16.857Z,84.8
2017-10-13T20:26:28.552Z,84.42
2017-10-13T20:27:39.092Z,84.42
2017-10-13T20:28:50.624Z,84.32
2017-10-13T20:30:01.169Z,84.8
2017-10-13T20:31:11.491Z,84.99
2017-10-13T20:32:22.051Z,85.09
2017-10-13T20:33:32.768Z,84.89
2017-10-13T20:34:43.263Z,85.09
2017-10-13T20:35:53.786Z,84.89
2017-10-13T20:37:04.318Z,85.18
2017-10-13T20:38:14.821Z,84.61
2017-10-13T20:39:25.315Z,85.09
2017-10-13T20:40:35.832Z,84.99
2017-10-13T20:41:46.333Z,85.18
2017-10-13T20:42:57.838Z,84.61
2017-10-13T20:44:07.897Z,84.7
2017-10-13T20:45:18.422Z,84.8
2017-10-13T20:46:29.283Z,84.7
2017-10-13T20:47:39.844Z,84.8
2017-10-13T20:48:50.066Z,84.8
2017-10-13T20:50:00.267Z,84.61
2017-10-13T20:51:10.785Z,85.18
2017-10-13T20:52:21.024Z,84.99
2017-10-13T20:53:31.229Z,85.09
2017-10-13T20:54:41.725Z,84.8
2017-10-13T20:55:52.323Z,84.99
2017-10-13T20:57:02.796Z,85.57
2017-10-13T20:58:13.398Z,84.89
2017-10-13T20:59:23.608Z,84.89
2017-10-13T21:00:34.145Z,85.18
2017-10-13T21:01:44.433Z,84.89
2017-10-13T21:02:54.672Z,84.99
2017-10-13T21:04:05.201Z,85.09
2017-10-13T21:05:15.674Z,85.09
2017-10-13T21:06:25.884Z,84.99
2017-10-13T21:07:36.108Z,85.38
2017-10-13T21:08:46.727Z,84.89
2017-10-13T21:09:57.404Z,85.09
2017-10-13T21:11:08.070Z,84.89
2017-10-13T21:12:18.539Z,85.57
2017-10-13T21:13:29.101Z,85.38
2017-10-13T21:14:39.270Z,85.28
2017-10-13T21:15:49.824Z,85.85
2017-10-13T21:17:00.521Z,86.14
2017-10-13T21:18:11.023Z,86.04
2017-10-13T21:19:21.180Z,85.57
2017-10-13T21:20:31.687Z,85.85
2017-10-13T21:21:42.153Z,85.62
2017-10-13T21:22:52.672Z,85.94
2017-10-13T21:24:03.169Z,85.9
2017-10-13T21:25:13.777Z,85.62
2017-10-13T21:26:24.299Z,85.57
2017-10-13T21:27:34.816Z,85.66
2017-10-13T21:28:45.056Z,85.66
2017-10-13T21:29:55.560Z,85.71
2017-10-13T21:31:06.074Z,85.75
2017-10-13T21:32:16.267Z,85.9
2017-10-13T21:33:26.955Z,86
2017-10-13T21:34:37.517Z,86.14
2017-10-13T21:35:48.037Z,86.33
2017-10-13T21:36:58.513Z,86.29
2017-10-13T21:38:08.726Z,86.38
2017-10-13T21:39:19.234Z,86.47
2017-10-13T21:40:29.740Z,86.23
2017-10-13T21:41:41.376Z,86.04
2017-10-13T21:42:51.950Z,86.19
2017-10-13T21:44:02.153Z,86.23
2017-10-13T21:45:12.705Z,86.8
2017-10-13T21:46:23.194Z,86.8
2017-10-13T21:47:33.845Z,86.8
2017-10-13T21:48:44.322Z,86.71
2017-10-13T21:49:54.810Z,86.71
2017-10-13T21:51:05.414Z,86.33
2017-10-13T21:52:15.916Z,86.14
2017-10-13T21:53:26.473Z,86.23
2017-10-13T21:54:36.764Z,86.71
2017-10-13T21:55:47.308Z,86.52
2017-10-13T21:56:57.815Z,86.8
2017-10-13T21:58:08.395Z,86.61
2017-10-13T21:59:18.911Z,86.8
2017-10-13T22:00:29.447Z,86.61
2017-10-13T22:01:39.950Z,86.33
2017-10-13T22:02:50.666Z,86.61
2017-10-13T22:04:01.443Z,87
2017-10-13T22:05:11.997Z,87.09
2017-10-13T22:06:22.510Z,87.09
2017-10-13T22:07:32.999Z,86.8
2017-10-13T22:08:43.476Z,87.19
2017-10-13T22:09:53.943Z,87.09
2017-10-13T22:11:04.455Z,87.09
2017-10-13T22:12:14.976Z,87.09
2017-10-13T22:13:25.487Z,86.57
2017-10-13T22:14:36.084Z,86.57
2017-10-13T22:15:46.584Z,86.76
2017-10-13T22:16:57.163Z,86.86
2017-10-13T22:18:07.701Z,86.67
2017-10-13T22:19:18.187Z,86.67
2017-10-13T22:20:28.695Z,86.57
2017-10-13T22:21:39.198Z,86.57
2017-10-13T22:22:49.714Z,87.24
2017-10-13T22:24:00.303Z,87.34
2017-10-13T22:25:10.783Z,87.24
2017-10-13T22:26:21.322Z,86.96
2017-10-13T22:27:31.420Z,87.24
2017-10-13T22:28:42.107Z,86.96
2017-10-13T22:29:52.636Z,87.62
2017-10-13T22:31:03.246Z,87.53
2017-10-13T22:32:13.695Z,87.34
2017-10-13T22:33:24.215Z,87.53
2017-10-13T22:34:34.875Z,87.62
2017-10-13T22:35:45.384Z,87.62
2017-10-13T22:36:55.947Z,87.34
2017-10-13T22:38:06.487Z,87.43
2017-10-13T22:39:16.990Z,87.15
2017-10-13T22:40:27.526Z,87.53
2017-10-13T22:41:38.265Z,87.15
2017-10-13T22:42:48.384Z,87.43
2017-10-13T22:43:58.907Z,87.72
2017-10-13T22:45:09.132Z,87.82
2017-10-13T22:46:19.668Z,87.53
2017-10-13T22:47:30.217Z,87.53
2017-10-13T22:48:40.512Z,87.53
2017-10-13T22:49:51.160Z,87.72
2017-10-13T22:51:02.550Z,87.82
2017-10-13T22:52:13.172Z,87.53
2017-10-13T22:53:23.824Z,87.91
2017-10-13T22:54:33.981Z,88.1
2017-10-13T22:55:44.504Z,88.01
2017-10-13T22:56:55.977Z,87.82
2017-10-13T22:58:06.573Z,88.01
2017-10-13T22:59:17.516Z,87.91
2017-10-13T23:00:28.054Z,87.91
2017-10-13T23:01:38.179Z,88.1
2017-10-13T23:02:48.671Z,87.91
2017-10-13T23:03:59.154Z,87.91
2017-10-13T23:05:09.642Z,88.01
2017-10-13T23:06:20.114Z,87.62
2017-10-13T23:07:30.322Z,87.82
2017-10-13T23:08:40.744Z,87.62
2017-10-13T23:09:51.266Z,87.72
2017-10-13T23:11:01.323Z,87.62
2017-10-13T23:12:11.810Z,87.82
2017-10-13T23:13:22.322Z,88.39
2017-10-13T23:14:32.767Z,88.68
2017-10-13T23:15:43.286Z,88.48
2017-10-13T23:16:53.748Z,88.68
2017-10-13T23:18:04.227Z,88.58
2017-10-13T23:19:14.690Z,88.58
2017-10-13T23:20:24.452Z,88.58
2017-10-13T23:21:34.928Z,88.58
2017-10-13T23:22:45.406Z,88.58
2017-10-13T23:23:55.885Z,88.48
2017-10-13T23:25:06.422Z,88.48
2017-10-13T23:26:16.884Z,88.58
2017-10-13T23:27:27.380Z,88.77
2017-10-13T23:28:37.844Z,88.48
2017-10-13T23:29:48.436Z,88.58
2017-10-13T23:30:58.921Z,88.29
2017-10-13T23:32:09.437Z,88.48
2017-10-13T23:33:19.978Z,88.48
2017-10-13T23:34:30.460Z,88.77
2017-10-13T23:35:40.506Z,88.39
2017-10-13T23:36:50.988Z,88.39
2017-10-13T23:38:00.689Z,88.58
2017-10-13T23:39:11.193Z,88.58
2017-10-13T23:40:21.357Z,89.15
2017-10-13T23:41:31.996Z,88.96
2017-10-13T23:42:42.450Z,89.25
2017-10-13T23:43:52.937Z,89.06
2017-10-13T23:45:03.390Z,88.87
2017-10-13T23:46:13.862Z,88.77
2017-10-13T23:47:24.334Z,89.25
2017-10-13T23:48:34.867Z,89.15
2017-10-13T23:49:45.478Z,88.96
2017-10-13T23:50:55.675Z,88.96
2017-10-13T23:52:06.186Z,89.06
2017-10-13T23:53:16.662Z,89.15
2017-10-13T23:54:27.129Z,89.06
2017-10-13T23:55:37.655Z,88.96
2017-10-13T23:56:48.122Z,89.15
2017-10-13T23:57:58.742Z,88.96
2017-10-13T23:59:09.388Z,88.68
